TAF LDOS 230525Z 2306/2406 35007KT 9999 BKN045
                 TX13/2313Z TN01/2405Z=
TAF LDOS 222325Z 2300/2400 01012KT 9999 BKN045
                 TX13/2313Z TN04/2323Z
    PROB30 TEMPO 2300/2304 3000 BR BKN010 OVC030
           BECMG 2306/2308 32007KT=
TAF LDOS 221725Z 2218/2318 13005KT 9999 BKN040
                 TX13/2314Z TN08/2306Z
    PROB30 TEMPO 2218/2300 1500 -RA BR BKN004 OVC030
           BECMG 2223/2301 01012KT
           BECMG 2307/2309 32008KT=
TAF LDOS 221125Z 2212/2312 20008KT 9999 SCT010 BKN040
                 TX13/2214Z TN07/2306Z
    PROB40 TEMPO 2212/2301 13008KT 4000 -RA BKN006 OVC030
    PROB30 TEMPO 2216/2300 1200 -RA BR BKN002
           BECMG 2223/2301 01012KT
           BECMG 2307/2309 32008KT=
TAF LDOS 220526Z 2206/2306 13010KT 9999 BKN040
                 TX14/2212Z TN08/2304Z
           TEMPO 2206/2304 4000 -RA BKN010
    PROB40 TEMPO 2206/2208 06008KT
           BECMG 2212/2214 20008KT
           BECMG 2221/2223 01012KT=
TAF LDOS 212325Z 2200/2300 12008KT 9999 BKN040
                 TX15/2212Z TN11/2204Z
    PROB30 TEMPO 2204/2300 4000 -RA BKN008
           BECMG 2212/2214 20008KT
           BECMG 2222/2300 01010KT=